createdAt,value
2019-01-27T00:01:16.629Z,0.53
2019-01-27T00:03:48.434Z,0.56
2019-01-27T00:06:20.145Z,0.51
2019-01-27T00:08:51.794Z,0.44
2019-01-27T00:11:23.521Z,0.50
2019-01-27T00:13:55.180Z,0.44
2019-01-27T00:16:26.777Z,0.52
2019-01-27T00:18:58.429Z,0.38
2019-01-27T00:21:30.397Z,0.39
2019-01-27T00:24:02.231Z,0.35
2019-01-27T00:26:33.902Z,0.44
2019-01-27T00:29:05.798Z,0.43
2019-01-27T00:31:37.471Z,0.40
2019-01-27T00:34:09.136Z,0.39
2019-01-27T00:36:40.726Z,0.46
2019-01-27T00:39:12.358Z,0.56
2019-01-27T00:41:44.277Z,0.55
2019-01-27T00:44:16.159Z,0.47
2019-01-27T00:46:48.820Z,0.51
2019-01-27T00:49:20.400Z,0.50
2019-01-27T00:51:52.065Z,0.47
2019-01-27T00:54:23.707Z,0.53
2019-01-27T00:56:55.350Z,0.54
2019-01-27T00:59:26.986Z,0.50
2019-01-27T01:01:59.651Z,0.47
2019-01-27T01:04:31.229Z,0.53
2019-01-27T01:07:02.808Z,0.47
2019-01-27T01:09:34.438Z,0.50
2019-01-27T01:12:06.125Z,0.52
2019-01-27T01:14:37.763Z,0.51
2019-01-27T01:17:09.354Z,0.61
2019-01-27T01:19:41.001Z,0.61
2019-01-27T01:22:12.692Z,0.64
2019-01-27T01:24:44.280Z,0.58
2019-01-27T01:27:16.197Z,0.55
2019-01-27T01:29:48.136Z,0.70
2019-01-27T01:32:19.744Z,0.71
2019-01-27T01:34:51.388Z,0.75
2019-01-27T01:37:23.183Z,0.76
2019-01-27T01:39:54.796Z,0.69
2019-01-27T01:42:26.443Z,0.67
2019-01-27T01:44:58.028Z,0.72
2019-01-27T01:47:29.625Z,0.73
2019-01-27T01:50:01.253Z,0.80
2019-01-27T01:52:32.888Z,0.77
2019-01-27T01:55:04.500Z,0.76
2019-01-27T01:57:36.185Z,0.82
2019-01-27T02:00:09.698Z,0.77
2019-01-27T02:02:41.366Z,0.78
2019-01-27T02:05:13.234Z,0.78
2019-01-27T02:07:45.011Z,0.78
2019-01-27T02:10:19.359Z,0.87
2019-01-27T02:12:51.542Z,0.78
2019-01-27T02:15:56.689Z,0.76
2019-01-27T02:18:28.404Z,0.89
2019-01-27T02:21:00.013Z,0.97
2019-01-27T02:23:31.709Z,0.96
2019-01-27T02:26:03.334Z,0.89
2019-01-27T02:28:35.989Z,0.95
2019-01-27T02:31:07.641Z,0.88
2019-01-27T02:33:39.242Z,0.88
2019-01-27T02:36:10.872Z,0.84
2019-01-27T02:38:42.525Z,0.92
2019-01-27T02:41:14.369Z,0.92
2019-01-27T02:43:47.420Z,0.85
2019-01-27T02:46:19.361Z,0.82
2019-01-27T02:48:51.301Z,0.94
2019-01-27T02:51:22.870Z,0.80
2019-01-27T02:53:54.541Z,0.93
2019-01-27T02:56:26.189Z,0.85
2019-01-27T02:58:57.840Z,0.83
2019-01-27T03:01:29.476Z,0.83
2019-01-27T03:04:01.144Z,0.81
2019-01-27T03:06:40.196Z,0.84
2019-01-27T03:09:26.870Z,0.79
2019-01-27T03:11:58.434Z,0.86
2019-01-27T03:14:30.094Z,0.94
2019-01-27T03:17:01.741Z,0.86
2019-01-27T03:19:33.388Z,0.82
2019-01-27T03:22:04.946Z,0.83
2019-01-27T03:24:38.010Z,0.86
2019-01-27T03:27:09.635Z,0.79
2019-01-27T03:29:41.288Z,0.88
2019-01-27T03:32:12.933Z,0.92
2019-01-27T03:34:44.638Z,0.86
2019-01-27T03:37:16.255Z,1.06
2019-01-27T03:39:48.248Z,0.83
2019-01-27T03:42:19.872Z,0.95
2019-01-27T03:44:51.480Z,0.96
2019-01-27T03:47:23.107Z,0.91
2019-01-27T03:49:54.678Z,0.87
2019-01-27T03:52:26.261Z,0.84
2019-01-27T03:54:57.851Z,0.85
2019-01-27T03:57:29.428Z,0.84
2019-01-27T04:00:01.038Z,0.78
2019-01-27T04:02:32.663Z,0.89
2019-01-27T04:05:04.289Z,0.97
2019-01-27T04:07:36.341Z,0.99
2019-01-27T04:10:17.655Z,1.04
2019-01-27T04:12:49.363Z,0.96
2019-01-27T04:15:21.450Z,1.00
2019-01-27T04:17:53.976Z,0.93
2019-01-27T04:20:25.537Z,0.93
2019-01-27T04:22:57.197Z,0.91
2019-01-27T04:25:28.800Z,0.89
2019-01-27T04:28:00.438Z,0.93
2019-01-27T04:30:34.507Z,0.92
2019-01-27T04:33:06.178Z,0.99
2019-01-27T04:35:37.769Z,1.11
2019-01-27T04:38:09.334Z,1.17
2019-01-27T04:40:40.942Z,1.17
2019-01-27T04:43:12.512Z,1.09
2019-01-27T04:45:44.334Z,1.10
2019-01-27T04:48:16.251Z,1.01
2019-01-27T04:50:48.125Z,1.07
2019-01-27T04:53:19.713Z,1.08
2019-01-27T04:55:51.322Z,1.11
2019-01-27T04:58:22.943Z,1.13
2019-01-27T05:00:54.522Z,1.23
2019-01-27T05:03:48.168Z,1.32
2019-01-27T05:06:19.743Z,1.32
2019-01-27T05:08:51.391Z,1.30
2019-01-27T05:11:22.959Z,1.21
2019-01-27T05:13:54.603Z,1.25
2019-01-27T05:16:26.256Z,1.32
2019-01-27T05:18:57.838Z,1.31
2019-01-27T05:21:29.487Z,1.30
2019-01-27T05:24:01.063Z,1.32
2019-01-27T05:26:32.708Z,1.40
2019-01-27T05:29:04.254Z,1.36
2019-01-27T05:31:35.846Z,1.43
2019-01-27T05:34:08.401Z,1.35
2019-01-27T05:36:39.997Z,1.39
2019-01-27T05:39:11.568Z,1.57
2019-01-27T05:41:43.170Z,1.67
2019-01-27T05:44:15.033Z,1.74
2019-01-27T05:46:46.632Z,1.82
2019-01-27T05:49:18.348Z,1.79
2019-01-27T05:51:50.502Z,1.90
2019-01-27T05:54:22.653Z,1.92
2019-01-27T05:56:56.628Z,2.01
2019-01-27T05:59:27.505Z,2.06
2019-01-27T06:01:59.075Z,2.09
2019-01-27T06:04:31.628Z,2.08
2019-01-27T06:07:03.233Z,2.09
2019-01-27T06:09:34.807Z,2.01
2019-01-27T06:12:06.462Z,2.13
2019-01-27T06:14:38.066Z,2.00
2019-01-27T06:17:09.650Z,2.09
2019-01-27T06:19:41.218Z,2.12
2019-01-27T06:22:12.879Z,2.10
2019-01-27T06:24:44.461Z,2.04
2019-01-27T06:27:16.266Z,1.89
2019-01-27T06:29:48.119Z,1.84
2019-01-27T06:32:43.109Z,1.88
2019-01-27T06:35:15.032Z,1.78
2019-01-27T06:37:46.728Z,1.75
2019-01-27T06:40:18.405Z,1.93
2019-01-27T06:42:50.021Z,1.99
2019-01-27T06:45:21.578Z,1.89
2019-01-27T06:47:53.228Z,1.93
2019-01-27T06:50:24.773Z,1.98
2019-01-27T06:52:56.340Z,1.94
2019-01-27T06:55:27.900Z,1.91
2019-01-27T06:57:59.505Z,1.91
2019-01-27T07:00:49.995Z,1.83
2019-01-27T07:03:43.347Z,1.66
2019-01-27T07:06:35.553Z,1.71
2019-01-27T07:09:28.398Z,1.76
2019-01-27T07:12:08.558Z,1.73
2019-01-27T07:14:48.532Z,1.67
2019-01-27T07:17:44.979Z,1.69
2019-01-27T07:20:53.691Z,1.70
2019-01-27T07:23:43.992Z,1.70
2019-01-27T07:26:34.472Z,1.76
2019-01-27T07:29:23.941Z,1.77
2019-01-27T07:32:14.416Z,1.83
2019-01-27T07:35:03.895Z,1.88
2019-01-27T07:37:55.692Z,1.88
2019-01-27T07:40:34.319Z,1.94
2019-01-27T07:43:36.758Z,1.96
2019-01-27T07:46:27.822Z,1.95
2019-01-27T07:49:17.240Z,1.92
2019-01-27T07:52:06.296Z,1.94
2019-01-27T07:55:09.856Z,1.92
2019-01-27T07:58:00.417Z,2.00
2019-01-27T08:00:36.233Z,2.01
2019-01-27T08:03:30.722Z,1.89
2019-01-27T08:06:12.706Z,2.01
2019-01-27T08:08:58.605Z,2.03
2019-01-27T08:11:49.869Z,2.03
2019-01-27T08:14:41.690Z,2.01
2019-01-27T08:17:21.233Z,2.01
2019-01-27T08:20:10.064Z,1.99
2019-01-27T08:22:55.450Z,2.03
2019-01-27T08:25:49.292Z,1.94
2019-01-27T08:28:55.291Z,2.07
2019-01-27T08:31:54.965Z,2.02
2019-01-27T08:34:43.412Z,1.99
2019-01-27T08:37:37.113Z,1.98
2019-01-27T08:40:40.285Z,2.04
2019-01-27T08:43:37.011Z,2.19
2019-01-27T08:46:20.859Z,2.21
2019-01-27T08:48:52.981Z,2.31
2019-01-27T08:51:24.759Z,2.36
2019-01-27T08:53:59.476Z,2.42
2019-01-27T08:56:31.142Z,2.36
2019-01-27T08:59:02.695Z,2.35
2019-01-27T09:02:11.508Z,2.44
2019-01-27T09:05:02.569Z,2.45
2019-01-27T09:07:53.391Z,2.33
2019-01-27T09:10:34.289Z,2.42
2019-01-27T09:13:39.962Z,2.49
2019-01-27T09:16:30.506Z,2.55
2019-01-27T09:19:20.219Z,2.61
2019-01-27T09:22:13.884Z,2.66
2019-01-27T09:25:03.113Z,2.65
2019-01-27T09:27:51.676Z,2.78
2019-01-27T09:30:40.838Z,2.78
2019-01-27T09:33:29.030Z,2.84
2019-01-27T09:36:19.569Z,2.87
2019-01-27T09:39:13.407Z,2.96
2019-01-27T09:42:09.970Z,3.16
2019-01-27T09:44:56.545Z,3.13
2019-01-27T09:47:47.074Z,3.17
2019-01-27T09:50:30.201Z,3.21
2019-01-27T09:53:09.374Z,3.14
2019-01-27T09:55:56.794Z,3.07
2019-01-27T09:58:53.115Z,2.86
2019-01-27T10:01:49.777Z,2.94
2019-01-27T10:04:41.756Z,2.91
2019-01-27T10:07:24.964Z,3.13
2019-01-27T10:10:25.158Z,3.03
2019-01-27T10:13:24.538Z,2.97
2019-01-27T10:16:24.797Z,2.92
2019-01-27T10:19:27.188Z,2.93
2019-01-27T10:22:10.767Z,2.96
2019-01-27T10:25:16.069Z,2.88
2019-01-27T10:28:03.674Z,2.99
2019-01-27T10:31:01.686Z,3.11
2019-01-27T10:33:55.723Z,3.18
2019-01-27T10:36:39.781Z,3.18
2019-01-27T10:39:33.159Z,3.04
2019-01-27T10:42:27.962Z,3.15
2019-01-27T10:45:21.643Z,3.25
2019-01-27T10:48:18.492Z,3.14
2019-01-27T10:51:12.147Z,3.07
2019-01-27T10:54:05.460Z,3.18
2019-01-27T10:56:43.781Z,3.21
2019-01-27T10:59:37.959Z,3.34
2019-01-27T11:02:38.146Z,3.33
2019-01-27T11:05:33.061Z,3.22
2019-01-27T11:08:36.422Z,3.13
2019-01-27T11:11:24.480Z,3.28
2019-01-27T11:14:13.419Z,3.19
2019-01-27T11:17:06.949Z,3.32
2019-01-27T11:20:03.680Z,3.29
2019-01-27T11:22:52.638Z,3.32
2019-01-27T11:25:39.505Z,3.14
2019-01-27T11:28:28.914Z,3.22
2019-01-27T11:31:17.919Z,3.01
2019-01-27T11:34:08.748Z,3.18
2019-01-27T11:36:57.696Z,3.25
2019-01-27T11:39:54.034Z,3.17
2019-01-27T11:42:42.482Z,3.22
2019-01-27T11:45:27.354Z,3.18
2019-01-27T11:48:20.256Z,3.25
2019-01-27T11:51:13.613Z,3.26
2019-01-27T11:53:45.385Z,3.29
2019-01-27T11:56:18.058Z,3.35
2019-01-27T11:58:49.681Z,3.29
2019-01-27T12:01:21.842Z,3.12
2019-01-27T12:03:53.529Z,3.26
2019-01-27T12:06:25.237Z,3.25
2019-01-27T12:08:57.174Z,3.25
2019-01-27T12:11:28.878Z,3.23
2019-01-27T12:14:00.555Z,3.36
2019-01-27T12:16:32.378Z,3.36
2019-01-27T12:19:04.114Z,3.12
2019-01-27T12:21:35.790Z,3.22
2019-01-27T12:24:07.457Z,3.20
2019-01-27T12:26:39.047Z,3.15
2019-01-27T12:29:10.676Z,3.09
2019-01-27T12:31:43.184Z,3.15
2019-01-27T12:34:14.917Z,3.16
2019-01-27T12:36:47.030Z,3.10
2019-01-27T12:39:20.520Z,3.01
2019-01-27T12:41:52.647Z,3.06
2019-01-27T12:44:24.308Z,3.25
2019-01-27T12:46:55.984Z,3.58
2019-01-27T12:49:27.704Z,3.78
2019-01-27T12:52:01.317Z,3.82
2019-01-27T12:54:32.977Z,3.73
2019-01-27T12:57:04.585Z,3.72
2019-01-27T12:59:36.657Z,3.69
2019-01-27T13:02:08.325Z,3.61
2019-01-27T13:04:40.068Z,3.41
2019-01-27T13:07:11.736Z,3.52
2019-01-27T13:09:43.320Z,3.54
2019-01-27T13:12:15.103Z,3.51
2019-01-27T13:14:46.948Z,3.57
2019-01-27T13:17:18.620Z,3.39
2019-01-27T13:19:53.890Z,3.46
2019-01-27T13:22:23.606Z,3.53
2019-01-27T13:24:55.202Z,3.53
2019-01-27T13:27:26.798Z,3.57
2019-01-27T13:29:58.440Z,3.64
2019-01-27T13:32:30.085Z,3.70
2019-01-27T13:35:01.726Z,3.76
2019-01-27T13:37:33.380Z,3.87
2019-01-27T13:40:05.508Z,4.10
2019-01-27T13:42:38.332Z,4.23
2019-01-27T13:45:13.210Z,4.37
2019-01-27T13:47:45.147Z,4.34
2019-01-27T13:50:17.059Z,4.34
2019-01-27T13:52:49.980Z,4.36
2019-01-27T13:55:27.691Z,4.15
2019-01-27T13:57:59.409Z,4.20
2019-01-27T14:00:34.095Z,4.13
2019-01-27T14:03:05.813Z,4.12
2019-01-27T14:05:37.629Z,4.04
2019-01-27T14:08:09.479Z,3.83
2019-01-27T14:10:41.118Z,3.85
2019-01-27T14:13:12.727Z,3.84
2019-01-27T14:15:44.384Z,3.83
2019-01-27T14:18:16.225Z,3.73
2019-01-27T14:20:48.129Z,3.65
2019-01-27T14:23:20.180Z,3.60
2019-01-27T14:25:52.020Z,3.54
2019-01-27T14:28:23.681Z,3.45
2019-01-27T14:30:56.401Z,3.41
2019-01-27T14:33:27.978Z,3.43
2019-01-27T14:35:59.597Z,3.37
2019-01-27T14:38:31.289Z,3.25
2019-01-27T14:41:02.943Z,3.20
2019-01-27T14:43:34.538Z,3.09
2019-01-27T14:46:06.206Z,3.13
2019-01-27T14:48:37.923Z,3.07
2019-01-27T14:51:09.566Z,3.07
2019-01-27T14:53:43.716Z,3.09
2019-01-27T14:56:17.329Z,3.09
2019-01-27T14:59:00.102Z,3.16
2019-01-27T15:01:31.787Z,3.21
2019-01-27T15:04:03.477Z,3.24
2019-01-27T15:06:36.677Z,3.16
2019-01-27T15:09:09.864Z,3.23
2019-01-27T15:11:41.513Z,3.24
2019-01-27T15:14:24.802Z,3.24
2019-01-27T15:17:07.612Z,3.27
2019-01-27T15:19:53.034Z,3.29
2019-01-27T15:22:40.074Z,3.31
2019-01-27T15:25:27.407Z,3.25
2019-01-27T15:28:18.494Z,3.24
2019-01-27T15:31:06.372Z,3.23
2019-01-27T15:33:52.004Z,3.22
2019-01-27T15:36:27.231Z,3.24
2019-01-27T15:39:17.460Z,3.26
2019-01-27T15:42:01.070Z,3.25
2019-01-27T15:44:39.383Z,3.24
2019-01-27T15:47:11.113Z,3.28
2019-01-27T15:49:42.743Z,3.27
2019-01-27T15:52:14.391Z,3.31
2019-01-27T15:54:46.186Z,3.31
2019-01-27T15:57:17.993Z,3.33
2019-01-27T15:59:50.321Z,3.34
2019-01-27T16:02:22.424Z,3.38
2019-01-27T16:04:56.125Z,3.37
2019-01-27T16:07:28.344Z,3.44
2019-01-27T16:10:00.020Z,3.39
2019-01-27T16:12:31.693Z,3.40
2019-01-27T16:15:03.319Z,3.36
2019-01-27T16:17:34.989Z,3.36
2019-01-27T16:20:07.138Z,3.33
2019-01-27T16:22:38.827Z,3.31
2019-01-27T16:25:11.240Z,3.33
2019-01-27T16:27:44.352Z,3.29
2019-01-27T16:30:44.749Z,3.23
2019-01-27T16:33:19.839Z,3.18
2019-01-27T16:35:51.528Z,3.18
2019-01-27T16:38:23.168Z,3.14
2019-01-27T16:40:54.817Z,3.10
2019-01-27T16:43:26.866Z,3.11
2019-01-27T16:46:01.487Z,3.11
2019-01-27T16:48:36.461Z,3.13
2019-01-27T16:51:08.204Z,3.13
2019-01-27T16:53:40.426Z,3.13
2019-01-27T16:56:12.710Z,3.14
2019-01-27T16:58:45.367Z,3.14
2019-01-27T17:01:18.289Z,3.14
2019-01-27T17:03:50.395Z,3.14
2019-01-27T17:06:21.970Z,3.15
2019-01-27T17:08:57.535Z,3.16
2019-01-27T17:11:30.587Z,3.18
2019-01-27T17:14:05.634Z,3.18
2019-01-27T17:16:37.505Z,3.15
2019-01-27T17:19:09.101Z,3.16
2019-01-27T17:21:40.800Z,3.17
2019-01-27T17:24:12.462Z,3.22
2019-01-27T17:26:44.128Z,3.25
2019-01-27T17:29:15.814Z,3.25
2019-01-27T17:31:47.432Z,3.29
2019-01-27T17:34:19.554Z,3.22
2019-01-27T17:36:51.380Z,3.31
2019-01-27T17:39:23.340Z,3.30
2019-01-27T17:41:54.990Z,3.26
2019-01-27T17:44:26.662Z,3.29
2019-01-27T17:46:58.286Z,3.29
2019-01-27T17:49:29.926Z,3.27
2019-01-27T17:52:01.561Z,3.23
2019-01-27T17:54:33.236Z,3.22
2019-01-27T17:57:14.921Z,3.27
2019-01-27T18:00:11.346Z,3.24
2019-01-27T18:02:55.135Z,3.25
2019-01-27T18:05:37.730Z,3.21
2019-01-27T18:08:17.503Z,3.22
2019-01-27T18:10:54.076Z,3.27
2019-01-27T18:13:37.180Z,3.24
2019-01-27T18:16:13.457Z,3.23
2019-01-27T18:18:45.830Z,3.21
2019-01-27T18:21:20.326Z,3.24
2019-01-27T18:23:52.791Z,3.28
2019-01-27T18:26:25.144Z,3.26
2019-01-27T18:28:58.254Z,3.34
2019-01-27T18:31:31.008Z,3.32
2019-01-27T18:34:02.687Z,3.32
2019-01-27T18:36:34.394Z,3.28
2019-01-27T18:39:09.971Z,3.32
2019-01-27T18:41:42.211Z,3.32
2019-01-27T18:44:13.863Z,3.36
2019-01-27T18:46:45.552Z,3.31
2019-01-27T18:49:17.426Z,3.29
2019-01-27T18:51:49.111Z,3.32
2019-01-27T18:54:38.367Z,3.31
2019-01-27T18:57:33.753Z,3.37
2019-01-27T19:00:32.957Z,3.37
2019-01-27T19:03:09.954Z,3.44
2019-01-27T19:05:46.170Z,3.42
2019-01-27T19:08:25.155Z,3.35
2019-01-27T19:11:15.659Z,3.43
2019-01-27T19:14:24.310Z,3.41
2019-01-27T19:17:17.463Z,3.38
2019-01-27T19:20:08.652Z,3.45
2019-01-27T19:22:55.285Z,3.41
2019-01-27T19:25:39.485Z,3.31
2019-01-27T19:28:26.916Z,3.17
2019-01-27T19:31:17.830Z,3.14
2019-01-27T19:34:17.401Z,3.11
2019-01-27T19:37:07.412Z,3.08
2019-01-27T19:40:05.021Z,3.05
2019-01-27T19:42:58.723Z,3.07
2019-01-27T19:45:54.433Z,3.06
2019-01-27T19:48:47.405Z,3.11
2019-01-27T19:51:42.244Z,3.14
2019-01-27T19:54:31.538Z,3.13
2019-01-27T19:57:15.435Z,3.20
2019-01-27T20:00:02.837Z,3.17
2019-01-27T20:02:54.804Z,3.20
2019-01-27T20:05:45.430Z,3.20
2019-01-27T20:08:42.027Z,3.21
2019-01-27T20:11:31.629Z,3.19
2019-01-27T20:14:35.250Z,3.19
2019-01-27T20:17:29.395Z,3.15
2019-01-27T20:20:16.431Z,3.20
2019-01-27T20:23:01.384Z,3.23
2019-01-27T20:25:52.000Z,3.25
2019-01-27T20:28:31.634Z,3.27
2019-01-27T20:31:19.427Z,3.31
2019-01-27T20:34:09.471Z,3.33
2019-01-27T20:36:58.591Z,3.28
2019-01-27T20:39:37.263Z,3.30
2019-01-27T20:42:34.633Z,3.30
2019-01-27T20:45:21.364Z,3.34
2019-01-27T20:48:04.749Z,3.31
2019-01-27T20:50:53.656Z,3.30
2019-01-27T20:53:42.742Z,3.33
2019-01-27T20:56:27.468Z,3.36
2019-01-27T20:59:12.749Z,3.35
2019-01-27T21:02:00.393Z,3.34
2019-01-27T21:04:49.385Z,3.36
2019-01-27T21:07:53.574Z,3.38
2019-01-27T21:10:59.068Z,3.36
2019-01-27T21:13:49.962Z,3.37
2019-01-27T21:16:37.808Z,3.37
2019-01-27T21:19:16.496Z,3.35
2019-01-27T21:21:48.354Z,3.35
2019-01-27T21:24:20.343Z,3.37
2019-01-27T21:26:52.037Z,3.39
2019-01-27T21:29:23.996Z,3.39
2019-01-27T21:31:55.723Z,3.35
2019-01-27T21:34:27.397Z,3.36
2019-01-27T21:36:59.230Z,3.32
2019-01-27T21:39:31.007Z,3.32
2019-01-27T21:42:02.673Z,3.38
2019-01-27T21:44:34.351Z,3.36
2019-01-27T21:47:06.030Z,3.32
2019-01-27T21:49:37.692Z,3.31
2019-01-27T21:52:09.284Z,3.28
2019-01-27T21:54:40.937Z,3.26
2019-01-27T21:57:12.614Z,3.23
2019-01-27T21:59:44.275Z,3.25
2019-01-27T22:02:16.886Z,3.19
2019-01-27T22:04:48.526Z,3.19
2019-01-27T22:07:20.250Z,3.17
2019-01-27T22:09:52.034Z,3.22
2019-01-27T22:12:23.945Z,3.22
2019-01-27T22:14:55.525Z,3.16
2019-01-27T22:17:27.230Z,3.13
2019-01-27T22:19:58.891Z,3.06
2019-01-27T22:22:30.544Z,2.96
2019-01-27T22:25:02.118Z,2.94
2019-01-27T22:27:33.937Z,2.90
2019-01-27T22:30:06.874Z,2.86
2019-01-27T22:32:38.536Z,2.80
2019-01-27T22:35:11.083Z,2.78
2019-01-27T22:37:42.746Z,2.75
2019-01-27T22:40:15.350Z,2.66
2019-01-27T22:42:47.322Z,2.57
2019-01-27T22:45:19.220Z,2.59
2019-01-27T22:47:51.152Z,2.48
2019-01-27T22:50:22.785Z,2.54
2019-01-27T22:52:54.342Z,2.57
2019-01-27T22:55:25.984Z,2.46
2019-01-27T22:57:57.553Z,2.46
2019-01-27T23:00:58.582Z,2.51
2019-01-27T23:03:32.996Z,2.53
2019-01-27T23:06:04.637Z,2.51
2019-01-27T23:08:36.305Z,2.55
2019-01-27T23:11:08.970Z,2.47
2019-01-27T23:13:40.604Z,2.41
2019-01-27T23:16:12.237Z,2.31
2019-01-27T23:18:43.868Z,2.23
2019-01-27T23:21:15.486Z,2.21
2019-01-27T23:23:47.342Z,2.23
2019-01-27T23:26:19.210Z,2.22
2019-01-27T23:28:51.151Z,2.19
2019-01-27T23:31:22.785Z,2.11
2019-01-27T23:33:54.358Z,2.05
2019-01-27T23:36:25.994Z,1.98
2019-01-27T23:38:57.656Z,1.97
2019-01-27T23:41:29.225Z,1.88
2019-01-27T23:44:00.884Z,1.83
2019-01-27T23:46:32.525Z,1.80
2019-01-27T23:49:04.115Z,1.75
2019-01-27T23:51:35.755Z,1.76
2019-01-27T23:54:07.400Z,1.80
2019-01-27T23:56:39.039Z,1.87
2019-01-27T23:59:10.614Z,1.82
